Time;durP1;ratioP1;P1;durP2;ratioP2;P2;SDS_P1;SDS_P2;PMS_P1;PMS_P2;Temp;Humidity;BMP_temperature;BMP_pressure;BME280_temperature;BME280_humidity;BME280_pressure;Samples;Min_cycle;Max_cycle;Signal;HPM_P1;HPM_P2
2023/08/08 00:00:03;;;;;;;5.80;1.60;;;;;;;18.70;71.64;100697.43;107494;1251;108023;-60
2023/08/08 00:02:32;;;;;;;4.70;1.50;;;;;;;18.71;71.18;100700.80;107624;1253;97897;-58
2023/08/08 00:05:00;;;;;;;3.30;1.40;;;;;;;18.69;70.52;100694.33;107619;1256;97915;-59
2023/08/08 00:07:31;;;;;;;2.50;1.10;;;;;;;18.70;70.21;100697.73;107626;1254;112221;-60
2023/08/08 00:10:00;;;;;;;3.30;1.30;;;;;;;18.73;69.72;100700.28;107606;1251;109228;-60
2023/08/08 00:12:28;;;;;;;3.60;1.00;;;;;;;18.74;68.83;100697.69;107596;1251;108537;-59
2023/08/08 00:14:56;;;;;;;2.40;1.10;;;;;;;18.74;68.26;100698.33;107627;1253;98088;-64
2023/08/08 00:17:25;;;;;;;9.90;1.20;;;;;;;18.77;68.21;100697.61;107548;1251;98456;-59
2023/08/08 00:19:53;;;;;;;8.60;2.00;;;;;;;18.82;68.23;100700.85;107457;1251;111906;-58
2023/08/08 00:22:21;;;;;;;23.40;2.30;;;;;;;18.86;68.34;100697.80;107492;1251;107891;-59
2023/08/08 00:24:50;;;;;;;8.80;2.20;;;;;;;18.89;68.55;100697.98;107477;1250;108690;-58
2023/08/08 00:27:18;;;;;;;2.50;1.50;;;;;;;18.88;68.61;100694.29;107475;1251;97876;-59
2023/08/08 00:29:48;;;;;;;3.30;1.50;;;;;;;18.84;68.77;100690.55;107505;1251;98356;-61
2023/08/08 00:32:16;;;;;;;4.90;2.10;;;;;;;18.85;69.29;100686.50;107588;1251;110612;-59
2023/08/08 00:34:44;;;;;;;6.40;1.60;;;;;;;18.84;69.40;100673.86;107538;1251;108766;-60
2023/08/08 00:37:13;;;;;;;2.30;1.60;;;;;;;18.83;69.61;100669.45;107496;1254;108207;-59
2023/08/08 00:39:45;;;;;;;7.90;1.50;;;;;;;18.80;69.67;100666.90;107497;1251;97899;-60
2023/08/08 00:42:14;;;;;;;3.90;1.30;;;;;;;18.77;70.38;100672.75;107525;1254;97727;-60
2023/08/08 00:44:42;;;;;;;2.90;1.70;;;;;;;18.71;71.00;100675.11;107558;1251;112190;-59
2023/08/08 00:47:11;;;;;;;3.70;1.40;;;;;;;18.63;72.06;100678.97;107637;1254;109685;-60
2023/08/08 00:49:39;;;;;;;2.70;1.30;;;;;;;18.52;72.17;100685.96;107600;1251;107165;-60
2023/08/08 00:52:08;;;;;;;2.10;1.40;;;;;;;18.43;72.06;100684.84;107499;1252;97862;-59
2023/08/08 00:54:38;;;;;;;2.10;1.30;;;;;;;18.40;72.05;100682.83;107623;1253;97714;-59
2023/08/08 00:57:06;;;;;;;4.00;1.50;;;;;;;18.35;72.14;100684.35;107626;1251;112358;-59
2023/08/08 00:59:34;;;;;;;2.30;1.40;;;;;;;18.30;72.13;100682.13;107665;1251;110124;-59
2023/08/08 01:02:03;;;;;;;4.10;1.50;;;;;;;18.28;72.32;100674.39;107536;1253;108043;-60
2023/08/08 01:04:31;;;;;;;8.00;1.50;;;;;;;18.26;72.46;100664.65;107605;1251;97826;-59
2023/08/08 01:07:24;;;;;;;6.90;1.50;;;;;;;18.25;72.41;100664.62;107484;1251;97928;-59
2023/08/08 01:10:06;;;;;;;3.50;1.50;;;;;;;18.25;72.43;100675.86;107498;1251;112006;-59
2023/08/08 01:12:47;;;;;;;5.70;1.60;;;;;;;18.26;72.52;100688.83;107517;1251;108672;-60
2023/08/08 01:15:17;;;;;;;3.10;1.30;;;;;;;18.27;72.56;100702.45;107517;1251;107866;-60
2023/08/08 01:17:46;;;;;;;7.00;2.00;;;;;;;18.30;72.71;100716.23;107506;1254;97819;-60
2023/08/08 01:20:16;;;;;;;6.30;1.60;;;;;;;18.32;72.68;100718.30;107547;1250;97719;-59
2023/08/08 01:23:12;;;;;;;3.10;1.40;;;;;;;18.34;72.84;100718.24;107517;1251;111275;-61
2023/08/08 01:25:42;;;;;;;5.90;1.80;;;;;;;18.37;72.80;100718.95;107532;1254;110277;-60
2023/08/08 01:28:10;;;;;;;3.20;1.50;;;;;;;18.38;72.77;100724.73;107574;1252;107202;-58
2023/08/08 01:30:39;;;;;;;4.50;1.30;;;;;;;18.38;72.85;100730.70;107594;1253;97707;-58
2023/08/08 01:33:08;;;;;;;5.90;2.00;;;;;;;18.40;72.82;100734.47;107609;1254;97828;-60
2023/08/08 01:35:41;;;;;;;3.30;1.20;;;;;;;18.43;72.94;100740.06;107576;1252;112358;-60
2023/08/08 01:38:23;;;;;;;;;;;;;;;18.46;72.85;100749.16;107612;1254;108720;-59
2023/08/08 01:40:51;;;;;;;4.10;1.70;;;;;;;18.49;72.67;100756.11;107617;1251;108657;-59
2023/08/08 01:43:20;;;;;;;4.70;1.40;;;;;;;18.51;72.49;100759.73;107509;1251;97816;-58
2023/08/08 01:45:50;;;;;;;4.60;1.50;;;;;;;18.51;72.29;100773.28;107537;1254;97726;-60
2023/08/08 01:48:18;;;;;;;9.90;2.60;;;;;;;18.52;72.26;100776.06;107601;1254;111871;-60
2023/08/08 01:50:47;;;;;;;7.00;1.70;;;;;;;18.52;72.10;100778.81;107625;1251;109270;-59
2023/08/08 01:53:17;;;;;;;7.00;1.50;;;;;;;18.51;72.05;100785.52;107582;1253;108157;-58
2023/08/08 01:55:45;;;;;;;3.10;1.40;;;;;;;18.48;72.04;100788.91;107579;1251;97701;-60
2023/08/08 01:58:14;;;;;;;1.00;0.80;;;;;;;18.46;72.06;100786.59;107489;1250;97850;-60
2023/08/08 02:00:43;;;;;;;3.30;1.40;;;;;;;18.44;72.01;100790.79;107605;1251;110986;-60
2023/08/08 02:03:12;;;;;;;4.50;1.40;;;;;;;18.43;72.17;100797.13;107595;1253;109130;-60
2023/08/08 02:05:41;;;;;;;3.30;1.60;;;;;;;18.42;71.96;100796.50;107579;1251;107889;-58
2023/08/08 02:08:09;;;;;;;4.60;1.60;;;;;;;18.41;72.04;100798.16;107586;1251;98010;-59
2023/08/08 02:10:37;;;;;;;6.50;1.40;;;;;;;18.38;71.88;100792.25;107497;1253;97700;-58
2023/08/08 02:13:06;;;;;;;4.90;1.40;;;;;;;18.37;71.84;100791.02;107459;1254;111766;-59
2023/08/08 02:15:34;;;;;;;4.60;1.30;;;;;;;18.37;71.98;100789.92;107570;1254;109208;-57
2023/08/08 02:18:04;;;;;;;3.80;1.50;;;;;;;18.37;71.84;100793.45;107577;1254;108349;-58
2023/08/08 02:20:32;;;;;;;6.50;1.50;;;;;;;18.32;72.04;100788.17;107570;1255;97805;-60
2023/08/08 02:23:00;;;;;;;2.40;1.40;;;;;;;18.25;71.87;100790.58;107513;1253;97944;-60
2023/08/08 02:25:30;;;;;;;5.60;1.60;;;;;;;18.23;72.03;100791.45;107507;1253;112241;-59
2023/08/08 02:27:59;;;;;;;10.10;1.40;;;;;;;18.19;71.95;100793.17;107474;1254;109867;-59
2023/08/08 02:30:27;;;;;;;9.00;1.50;;;;;;;18.14;72.00;100790.98;107466;1251;107642;-59
2023/08/08 02:32:56;;;;;;;2.70;1.10;;;;;;;18.10;71.96;100793.13;107547;1251;97916;-59
2023/08/08 02:35:26;;;;;;;7.90;2.60;;;;;;;18.08;72.10;100801.05;107523;1251;99498;-59
2023/08/08 02:37:55;;;;;;;3.90;1.30;;;;;;;18.04;72.31;100802.62;107587;1251;112728;-59
2023/08/08 02:40:24;;;;;;;5.40;1.20;;;;;;;18.03;72.61;100803.48;107581;1251;109487;-60
2023/08/08 02:42:52;;;;;;;4.70;1.20;;;;;;;18.04;72.67;100802.08;107597;1251;108335;-61
2023/08/08 02:45:21;;;;;;;2.80;1.40;;;;;;;18.06;72.83;100805.85;107570;1251;97985;-61
2023/08/08 02:47:49;;;;;;;5.30;1.40;;;;;;;18.07;72.80;100811.14;107501;1252;97892;-59
2023/08/08 02:50:18;;;;;;;1.90;0.80;;;;;;;18.09;72.74;100816.35;107567;1251;111761;-59
2023/08/08 02:52:47;;;;;;;4.50;1.20;;;;;;;18.08;72.67;100816.58;107510;1254;108940;-60
2023/08/08 02:55:16;;;;;;;3.40;1.70;;;;;;;18.08;72.73;100812.48;107459;1257;106565;-59
2023/08/08 02:57:47;;;;;;;10.10;1.20;;;;;;;18.07;72.85;100809.33;107589;1254;97828;-59
2023/08/08 03:00:15;;;;;;;3.10;1.20;;;;;;;18.03;72.65;100815.52;107645;1251;97816;-58
2023/08/08 03:02:47;;;;;;;5.40;1.60;;;;;;;18.00;72.81;100827.55;107639;1253;111590;-61
2023/08/08 03:05:16;;;;;;;4.30;1.20;;;;;;;17.97;73.12;100830.90;107493;1253;110116;-60
2023/08/08 03:07:44;;;;;;;2.90;1.20;;;;;;;17.93;73.00;100836.36;107595;1252;107645;-58
2023/08/08 03:10:13;;;;;;;4.10;1.60;;;;;;;17.91;73.11;100825.88;107559;1254;97723;-59
2023/08/08 03:12:42;;;;;;;2.80;1.40;;;;;;;17.89;73.43;100822.14;107586;1254;99665;-60
2023/08/08 03:15:11;;;;;;;8.70;2.40;;;;;;;17.84;73.28;100825.89;107541;1253;111918;-60
2023/08/08 03:17:40;;;;;;;2.50;1.50;;;;;;;17.85;73.20;100832.95;107641;1250;108952;-58
2023/08/08 03:20:10;;;;;;;5.60;2.10;;;;;;;17.86;73.13;100836.66;107655;1250;106766;-59
2023/08/08 03:22:39;;;;;;;1.50;1.10;;;;;;;17.87;73.13;100838.73;107652;1251;97703;-59
2023/08/08 03:25:08;;;;;;;4.40;1.40;;;;;;;17.87;73.27;100839.92;107603;1256;97764;-59
2023/08/08 03:27:37;;;;;;;1.90;1.30;;;;;;;17.87;73.09;100839.41;107609;1251;111672;-60
2023/08/08 03:30:08;;;;;;;5.60;1.40;;;;;;;17.89;73.25;100837.72;107582;1251;110115;-60
2023/08/08 03:32:41;;;;;;;7.50;1.30;;;;;;;17.91;73.33;100837.54;107529;1251;107754;-60
2023/08/08 03:35:09;;;;;;;9.70;1.40;;;;;;;17.91;73.46;100834.55;107508;1251;97973;-60
2023/08/08 03:37:38;;;;;;;2.20;1.30;;;;;;;17.93;73.44;100837.63;107565;1251;98479;-60
2023/08/08 03:40:07;;;;;;;3.30;1.40;;;;;;;17.93;73.46;100839.59;107642;1251;111232;-61
2023/08/08 03:42:36;;;;;;;2.90;1.40;;;;;;;17.95;73.76;100843.53;107602;1251;108092;-60
2023/08/08 03:45:05;;;;;;;1.90;1.20;;;;;;;17.96;73.70;100847.77;107571;1251;107980;-59
2023/08/08 03:47:33;;;;;;;7.60;1.30;;;;;;;18.00;73.67;100854.23;107579;1253;98508;-61
2023/08/08 03:50:02;;;;;;;3.20;1.40;;;;;;;18.04;73.68;100860.66;107643;1253;98482;-60
2023/08/08 03:52:34;;;;;;;6.20;1.30;;;;;;;18.07;73.80;100869.31;107473;1251;112187;-59
2023/08/08 03:55:04;;;;;;;2.90;1.20;;;;;;;18.10;73.87;100872.23;107640;1250;109962;-60
2023/08/08 03:57:32;;;;;;;3.10;1.30;;;;;;;18.11;74.19;100882.44;107607;1254;109057;-59
2023/08/08 04:00:01;;;;;;;3.30;1.50;;;;;;;18.10;74.23;100892.73;107438;1254;97831;-59
2023/08/08 04:02:40;;;;;;;5.80;1.30;;;;;;;18.11;74.35;100895.88;107608;1253;97800;-59
2023/08/08 04:05:08;;;;;;;2.70;1.00;;;;;;;18.11;74.24;100898.82;107630;1254;112121;-60
2023/08/08 04:07:37;;;;;;;3.90;1.50;;;;;;;18.11;74.25;100902.59;107585;1251;109446;-60
2023/08/08 04:10:06;;;;;;;3.70;1.20;;;;;;;18.12;74.37;100915.54;107590;1251;108442;-59
2023/08/08 04:12:34;;;;;;;3.30;1.70;;;;;;;18.15;74.59;100921.58;107613;1253;97832;-58
2023/08/08 04:15:04;;;;;;;6.80;1.80;;;;;;;18.18;74.59;100917.04;107617;1254;97782;-59
2023/08/08 04:17:33;;;;;;;8.00;1.50;;;;;;;18.22;74.47;100917.64;107541;1251;112175;-59
2023/08/08 04:20:01;;;;;;;11.30;1.40;;;;;;;18.26;74.57;100920.30;107606;1251;109938;-58
2023/08/08 04:22:29;;;;;;;4.10;1.50;;;;;;;18.26;74.15;100924.69;107560;1255;107209;-59
2023/08/08 04:24:58;;;;;;;2.80;1.60;;;;;;;18.28;74.19;100931.66;107607;1251;97909;-60
2023/08/08 04:27:26;;;;;;;4.80;1.60;;;;;;;18.33;73.99;100931.45;107591;1254;98472;-61
2023/08/08 04:29:55;;;;;;;4.30;1.30;;;;;;;18.39;73.90;100927.77;107606;1254;112099;-59
2023/08/08 04:32:23;;;;;;;6.00;1.70;;;;;;;18.46;73.98;100921.39;107531;1253;110279;-58
2023/08/08 04:34:52;;;;;;;5.90;1.50;;;;;;;18.51;73.64;100918.27;107588;1253;107838;-59
2023/08/08 04:37:21;;;;;;;5.60;1.30;;;;;;;18.56;73.44;100908.59;107574;1252;97821;-60
2023/08/08 04:39:49;;;;;;;4.20;1.50;;;;;;;18.63;73.14;100907.90;107581;1254;97720;-58
2023/08/08 04:42:17;;;;;;;8.80;1.50;;;;;;;18.71;73.03;100915.48;107591;1254;111595;-60
2023/08/08 04:44:46;;;;;;;3.40;1.50;;;;;;;18.76;72.80;100928.98;107651;1250;109874;-59
2023/08/08 04:47:14;;;;;;;10.20;1.80;;;;;;;18.84;72.69;100928.92;107623;1250;108558;-60
2023/08/08 04:49:43;;;;;;;8.80;2.30;;;;;;;18.92;72.42;100934.76;107512;1252;97854;-60
2023/08/08 04:52:11;;;;;;;4.20;1.80;;;;;;;18.99;71.90;100942.13;107568;1251;97701;-60
2023/08/08 04:54:40;;;;;;;3.60;1.70;;;;;;;19.07;70.93;100948.38;107621;1251;111819;-59
2023/08/08 04:57:08;;;;;;;8.80;1.90;;;;;;;19.12;68.42;100953.48;107595;1254;109284;-60
2023/08/08 04:59:36;;;;;;;4.20;1.60;;;;;;;19.17;67.37;100961.30;107589;1251;107867;-59
2023/08/08 05:02:04;;;;;;;8.80;1.60;;;;;;;19.26;67.19;100968.13;107560;1254;97780;-61
2023/08/08 05:04:33;;;;;;;2.70;1.40;;;;;;;19.34;66.06;100965.90;107601;1253;98347;-60
2023/08/08 05:07:01;;;;;;;7.30;1.80;;;;;;;19.34;64.20;100967.65;107630;1253;111931;-59
2023/08/08 05:09:29;;;;;;;8.90;1.80;;;;;;;19.35;63.47;100968.59;107595;1253;109659;-60
2023/08/08 05:11:58;;;;;;;6.90;1.50;;;;;;;19.36;62.12;100971.00;107601;1254;107629;-60
2023/08/08 05:14:26;;;;;;;2.60;1.20;;;;;;;19.32;60.78;100974.94;107582;1254;97806;-61
2023/08/08 05:16:55;;;;;;;5.00;1.80;;;;;;;19.30;60.93;100978.01;107559;1251;98450;-60
2023/08/08 05:19:25;;;;;;;10.90;1.70;;;;;;;19.35;61.14;100980.65;107570;1253;111816;-59
2023/08/08 05:21:53;;;;;;;5.90;1.70;;;;;;;19.37;60.54;100977.09;107572;1251;109470;-60
2023/08/08 05:24:21;;;;;;;5.60;2.10;;;;;;;19.25;58.54;100963.67;107613;1251;107606;-60
2023/08/08 05:26:50;;;;;;;8.70;1.80;;;;;;;19.21;59.74;100949.98;107599;1252;97821;-61
2023/08/08 05:29:18;;;;;;;12.80;2.00;;;;;;;19.27;60.83;100943.97;107644;1253;97691;-61
2023/08/08 05:31:47;;;;;;;7.30;1.70;;;;;;;19.36;61.71;100955.73;107598;1254;112078;-60
2023/08/08 05:34:16;;;;;;;9.50;2.10;;;;;;;19.44;62.39;100973.11;107584;1255;109027;-61
2023/08/08 05:36:44;;;;;;;10.30;1.90;;;;;;;19.50;62.75;100985.58;107567;1254;107217;-61
2023/08/08 05:39:12;;;;;;;6.20;2.20;;;;;;;19.51;61.89;100982.06;107613;1253;97800;-60
2023/08/08 05:41:41;;;;;;;9.40;2.50;;;;;;;19.54;61.91;100976.85;107595;1255;98546;-60
2023/08/08 05:44:09;;;;;;;7.90;2.30;;;;;;;19.58;62.00;100980.85;107588;1251;110649;-60
2023/08/08 05:46:38;;;;;;;9.00;1.90;;;;;;;19.62;62.34;100985.81;107516;1253;109180;-60
2023/08/08 05:49:06;;;;;;;9.60;1.60;;;;;;;19.67;62.78;100990.95;107536;1251;107564;-61
2023/08/08 05:51:34;;;;;;;5.40;1.70;;;;;;;19.67;63.28;100997.00;107487;1251;97826;-61
2023/08/08 05:54:03;;;;;;;5.20;1.50;;;;;;;19.72;63.31;100996.67;107535;1253;98354;-60
2023/08/08 05:56:39;;;;;;;7.60;1.70;;;;;;;19.79;63.10;100995.98;107559;1251;112063;-60
2023/08/08 05:59:07;;;;;;;9.80;2.00;;;;;;;19.90;62.77;100988.08;107594;1252;109789;-58
2023/08/08 06:01:36;;;;;;;12.90;3.10;;;;;;;20.01;62.47;100990.48;107571;1255;109002;-59
2023/08/08 06:04:04;;;;;;;5.30;2.60;;;;;;;20.10;62.74;100986.02;107584;1251;97887;-60
2023/08/08 06:06:32;;;;;;;5.30;1.60;;;;;;;20.20;62.66;100985.80;107506;1254;99582;-59
2023/08/08 06:09:01;;;;;;;9.00;2.70;;;;;;;20.32;62.43;100987.48;107655;1255;111951;-59
2023/08/08 06:11:30;;;;;;;3.90;1.90;;;;;;;20.44;62.27;100990.91;107619;1251;109629;-60
2023/08/08 06:13:58;;;;;;;5.70;2.40;;;;;;;20.53;61.75;100992.92;107558;1256;108674;-59
2023/08/08 06:16:27;;;;;;;8.90;3.10;;;;;;;20.61;61.43;100995.35;107578;1251;97996;-62
2023/08/08 06:18:55;;;;;;;14.50;3.70;;;;;;;20.70;60.80;100996.05;107587;1251;97826;-60
2023/08/08 06:21:23;;;;;;;14.10;3.90;;;;;;;20.80;60.55;100994.40;107513;1251;111641;-60
2023/08/08 06:23:54;;;;;;;13.30;3.50;;;;;;;20.90;59.63;100992.98;107571;1254;109702;-60
2023/08/08 06:26:23;;;;;;;10.60;3.10;;;;;;;20.94;56.92;100996.64;107599;1251;107681;-60
2023/08/08 06:28:51;;;;;;;8.80;2.60;;;;;;;20.90;56.43;100990.22;107615;1251;97945;-60
2023/08/08 06:31:19;;;;;;;6.40;1.80;;;;;;;20.89;55.80;100991.73;107612;1251;98349;-61
2023/08/08 06:33:48;;;;;;;4.70;2.00;;;;;;;20.89;55.64;101000.35;107525;1251;111834;-58
2023/08/08 06:36:16;;;;;;;5.40;2.30;;;;;;;20.92;55.59;101011.86;107522;1253;111962;-59
2023/08/08 06:38:45;;;;;;;2.70;1.50;;;;;;;20.93;55.31;101013.63;107580;1253;107772;-58
2023/08/08 06:41:13;;;;;;;2.60;1.60;;;;;;;20.91;53.47;101005.04;107579;1251;98273;-59
2023/08/08 06:43:41;;;;;;;3.50;1.90;;;;;;;20.84;53.17;100997.79;107565;1254;97959;-59
2023/08/08 06:46:09;;;;;;;6.80;1.90;;;;;;;20.75;53.64;100996.91;107505;1254;110925;-60
2023/08/08 06:48:41;;;;;;;6.20;2.00;;;;;;;20.68;54.33;100994.80;107539;1254;108773;-60
2023/08/08 06:51:10;;;;;;;1.90;1.20;;;;;;;20.65;53.92;101005.77;107556;1254;108129;-60
2023/08/08 06:53:47;;;;;;;3.10;0.80;;;;;;;20.66;53.61;101016.46;107578;1251;97922;-60
2023/08/08 06:56:19;;;;;;;1.70;0.90;;;;;;;20.66;53.06;101030.03;107524;1251;98491;-61
2023/08/08 06:58:47;;;;;;;1.10;0.70;;;;;;;20.76;52.90;101034.95;107629;1254;109752;-60
2023/08/08 07:01:16;;;;;;;4.00;1.10;;;;;;;20.85;52.99;101034.09;107515;1254;109500;-61
2023/08/08 07:03:45;;;;;;;2.50;0.70;;;;;;;20.92;52.47;101035.12;107593;1251;107997;-61
2023/08/08 07:06:17;;;;;;;0.90;0.70;;;;;;;21.01;52.11;101030.42;107427;1251;97842;-60
2023/08/08 07:08:46;;;;;;;1.90;0.70;;;;;;;21.10;51.92;101026.80;107453;1254;98351;-60
2023/08/08 07:11:14;;;;;;;3.90;0.80;;;;;;;21.18;50.09;101027.56;107509;1254;111922;-60
2023/08/08 07:13:43;;;;;;;3.10;0.60;;;;;;;21.22;50.45;101034.08;107560;1255;109401;-60
2023/08/08 07:16:11;;;;;;;3.40;1.00;;;;;;;21.30;50.97;101033.70;107614;1252;107291;-60
2023/08/08 07:18:40;;;;;;;3.50;1.30;;;;;;;21.37;51.01;101033.73;107549;1254;97835;-59
2023/08/08 07:21:08;;;;;;;2.00;1.20;;;;;;;21.41;50.69;101039.23;107557;1254;98030;-61
2023/08/08 07:23:36;;;;;;;2.20;1.10;;;;;;;21.49;50.81;101046.43;107582;1255;110858;-61
2023/08/08 07:26:05;;;;;;;5.10;0.80;;;;;;;21.62;49.74;101049.86;107624;1251;109450;-60
2023/08/08 07:28:33;;;;;;;3.00;0.80;;;;;;;21.65;49.75;101052.65;107619;1251;106146;-62
2023/08/08 07:31:01;;;;;;;6.80;0.70;;;;;;;21.80;49.97;101060.14;107645;1251;97809;-62
2023/08/08 07:33:30;;;;;;;4.60;1.00;;;;;;;21.99;49.40;101053.52;107652;1256;98026;-60
2023/08/08 07:35:59;;;;;;;4.10;0.80;;;;;;;22.17;49.06;101054.63;107572;1253;111440;-60
2023/08/08 07:38:27;;;;;;;12.50;1.80;;;;;;;22.35;48.31;101060.11;107640;1251;109990;-62
2023/08/08 07:40:56;;;;;;;3.00;0.80;;;;;;;22.51;48.42;101064.61;107585;1254;107836;-60
2023/08/08 07:43:25;;;;;;;5.80;1.50;;;;;;;22.63;47.66;101064.91;107630;1254;97829;-61
2023/08/08 07:45:53;;;;;;;2.60;1.30;;;;;;;22.72;47.49;101066.27;107507;1252;97835;-64
2023/08/08 07:48:21;;;;;;;3.50;1.10;;;;;;;22.68;46.68;101069.18;107626;1251;111653;-61
2023/08/08 07:50:50;;;;;;;6.40;0.90;;;;;;;22.74;47.70;101065.66;107614;1254;108993;-63
2023/08/08 07:53:18;;;;;;;10.00;1.10;;;;;;;22.87;47.70;101064.00;107587;1255;108224;-60
2023/08/08 07:55:47;;;;;;;3.50;0.80;;;;;;;23.04;47.33;101064.70;107701;1251;97915;-61
2023/08/08 07:58:16;;;;;;;2.50;0.70;;;;;;;23.14;45.85;101066.77;107653;1251;97832;-60
2023/08/08 08:00:44;;;;;;;2.00;0.70;;;;;;;23.20;45.83;101062.27;107592;1253;112294;-62
2023/08/08 08:03:15;;;;;;;3.90;0.90;;;;;;;23.25;44.78;101059.10;107600;1251;109031;-61
2023/08/08 08:05:44;;;;;;;5.00;1.00;;;;;;;23.23;44.65;101058.55;107582;1251;108702;-60
2023/08/08 08:08:13;;;;;;;0.60;0.50;;;;;;;23.25;43.95;101056.70;107601;1251;97912;-61
2023/08/08 08:10:41;;;;;;;1.30;0.30;;;;;;;23.26;44.06;101059.27;107599;1254;98302;-61
2023/08/08 08:13:11;;;;;;;0.70;0.40;;;;;;;23.30;43.61;101061.63;107566;1254;112202;-59
2023/08/08 08:15:40;;;;;;;4.20;0.60;;;;;;;23.25;44.03;101056.70;107592;1250;109756;-60
2023/08/08 08:18:08;;;;;;;4.90;0.50;;;;;;;23.25;44.59;101053.15;107585;1250;107878;-61
2023/08/08 08:20:36;;;;;;;3.30;0.60;;;;;;;23.31;44.93;101048.11;107636;1251;97864;-61
2023/08/08 08:23:05;;;;;;;3.00;0.60;;;;;;;23.36;44.65;101046.19;107603;1251;97795;-60
2023/08/08 08:25:33;;;;;;;2.80;0.60;;;;;;;23.40;44.42;101038.20;107634;1251;110772;-61
2023/08/08 08:28:01;;;;;;;2.90;0.60;;;;;;;23.43;44.74;101025.02;107610;1251;109595;-61
2023/08/08 08:30:30;;;;;;;1.30;0.70;;;;;;;23.45;44.51;101019.44;107615;1251;108151;-61
2023/08/08 08:33:00;;;;;;;6.10;1.20;;;;;;;23.42;44.50;101018.77;107641;1254;97817;-61
2023/08/08 08:35:28;;;;;;;2.90;0.80;;;;;;;23.42;44.10;101031.73;107637;1251;98415;-62
2023/08/08 08:37:57;;;;;;;4.00;0.70;;;;;;;23.37;43.77;101039.43;107589;1251;111873;-61
2023/08/08 08:40:26;;;;;;;2.50;0.60;;;;;;;23.28;44.12;101046.43;107574;1250;109224;-62
2023/08/08 08:42:54;;;;;;;8.00;1.20;;;;;;;23.24;44.44;101040.69;107548;1254;108758;-62
2023/08/08 08:45:23;;;;;;;2.60;0.90;;;;;;;23.24;44.37;101041.80;107585;1251;97918;-60
2023/08/08 08:47:55;;;;;;;3.90;0.90;;;;;;;23.26;44.07;101047.15;107667;1251;97830;-61
2023/08/08 08:50:27;;;;;;;9.50;1.10;;;;;;;23.31;44.19;101054.62;107588;1251;111434;-62
2023/08/08 08:52:57;;;;;;;3.40;0.60;;;;;;;23.38;44.74;101050.24;107632;1251;109159;-61
2023/08/08 08:55:27;;;;;;;9.20;1.10;;;;;;;23.48;44.59;101053.17;107577;1255;107517;-60
2023/08/08 08:57:55;;;;;;;4.90;1.10;;;;;;;23.59;44.88;101055.25;107598;1255;97822;-61
2023/08/08 09:00:25;;;;;;;11.10;1.50;;;;;;;23.79;44.74;101057.05;107662;1254;97729;-61
2023/08/08 09:02:55;;;;;;;4.80;1.00;;;;;;;23.95;44.42;101053.92;107585;1254;110809;-61
2023/08/08 09:05:26;;;;;;;9.50;0.80;;;;;;;24.11;43.94;101051.19;107670;1254;110368;-62
2023/08/08 09:07:54;;;;;;;3.40;0.90;;;;;;;24.25;43.32;101052.46;107539;1254;108223;-60
2023/08/08 09:10:24;;;;;;;4.80;1.00;;;;;;;24.36;43.64;101055.98;107600;1254;97950;-61
2023/08/08 09:12:53;;;;;;;3.10;1.00;;;;;;;24.48;43.31;101061.02;107626;1254;97841;-61
2023/08/08 09:15:22;;;;;;;4.80;1.30;;;;;;;24.52;41.72;101061.25;107625;1254;112161;-61
2023/08/08 09:17:50;;;;;;;3.60;0.80;;;;;;;24.38;41.36;101059.36;107510;1251;109081;-59
2023/08/08 09:20:19;;;;;;;6.20;1.20;;;;;;;24.20;41.58;101051.17;107587;1251;108180;-61
2023/08/08 09:22:48;;;;;;;5.80;0.90;;;;;;;24.07;41.90;101054.84;107576;1256;97832;-61
2023/08/08 09:25:16;;;;;;;7.30;0.80;;;;;;;24.06;42.21;101071.08;107660;1251;97678;-60
2023/08/08 09:27:45;;;;;;;4.30;1.00;;;;;;;24.10;42.22;101079.98;107629;1251;111829;-63
2023/08/08 09:30:15;;;;;;;1.10;0.40;;;;;;;24.19;41.48;101085.56;107572;1251;110652;-60
2023/08/08 09:32:45;;;;;;;3.00;1.00;;;;;;;24.20;41.81;101082.55;107561;1254;107252;-61
2023/08/08 09:35:13;;;;;;;4.00;0.70;;;;;;;24.23;42.13;101073.95;107619;1257;97933;-61
2023/08/08 09:37:42;;;;;;;5.90;0.80;;;;;;;24.28;41.15;101067.80;107602;1254;97800;-61
2023/08/08 09:40:11;;;;;;;5.70;0.90;;;;;;;24.27;41.83;101077.65;107600;1254;111714;-60
2023/08/08 09:42:41;;;;;;;10.60;5.40;;;;;;;24.32;41.22;101082.95;107612;1251;109897;-60
2023/08/08 09:45:10;;;;;;;7.80;0.90;;;;;;;24.31;40.83;101080.45;107623;1253;107816;-61
2023/08/08 09:47:39;;;;;;;4.80;0.80;;;;;;;24.25;39.94;101078.98;106962;1254;763841;-62
2023/08/08 09:50:08;;;;;;;1.30;0.60;;;;;;;24.17;40.02;101087.04;107430;1254;97829;-61
2023/08/08 09:52:40;;;;;;;0.80;0.60;;;;;;;24.17;40.54;101088.32;107526;1254;110933;-60
2023/08/08 09:55:11;;;;;;;6.50;0.60;;;;;;;24.14;41.13;101089.67;107544;1254;109226;-61
2023/08/08 09:57:42;;;;;;;1.60;0.70;;;;;;;24.17;40.34;101085.27;107539;1254;106753;-62
2023/08/08 10:00:15;;;;;;;8.20;0.80;;;;;;;24.10;39.89;101087.00;107523;1254;97828;-60
2023/08/08 10:02:45;;;;;;;8.70;1.10;;;;;;;24.04;40.38;101083.81;107575;1252;98321;-61
2023/08/08 10:05:15;;;;;;;5.80;0.50;;;;;;;24.02;41.11;101084.64;107545;1256;111115;-59
2023/08/08 10:07:45;;;;;;;2.90;0.60;;;;;;;24.03;41.30;101089.60;107539;1256;108979;-61
2023/08/08 10:10:14;;;;;;;2.10;0.40;;;;;;;23.97;40.73;101089.54;107541;1254;108350;-61
2023/08/08 10:12:43;;;;;;;6.30;0.50;;;;;;;23.97;41.17;101092.08;107532;1252;97891;-62
2023/08/08 10:15:11;;;;;;;3.30;0.50;;;;;;;24.03;41.84;101092.65;107561;1254;97718;-61
2023/08/08 10:17:41;;;;;;;9.70;0.70;;;;;;;24.13;41.42;101086.81;107517;1254;110774;-60
2023/08/08 10:20:17;;;;;;;2.00;0.30;;;;;;;24.12;40.94;101089.44;107522;1253;109145;-60
2023/08/08 10:22:46;;;;;;;4.90;0.50;;;;;;;24.07;40.82;101084.86;107544;1254;107641;-60
2023/08/08 10:25:19;;;;;;;5.10;0.50;;;;;;;24.04;41.19;101088.00;107567;1254;97815;-62
2023/08/08 10:27:48;;;;;;;7.60;0.70;;;;;;;24.02;40.81;101086.29;107637;1252;97934;-59
2023/08/08 10:30:16;;;;;;;2.40;0.50;;;;;;;23.97;40.19;101087.52;107522;1254;110668;-61
2023/08/08 10:32:50;;;;;;;0.50;0.30;;;;;;;23.91;40.11;101088.66;107513;1254;109846;-60
2023/08/08 10:35:19;;;;;;;6.50;0.70;;;;;;;23.80;40.55;101087.90;107639;1256;107681;-61
2023/08/08 10:37:54;;;;;;;4.30;0.50;;;;;;;23.74;40.75;101087.70;107578;1251;97820;-63
2023/08/08 10:40:23;;;;;;;3.90;0.50;;;;;;;23.79;40.97;101089.51;107610;1251;97772;-61
2023/08/08 10:42:52;;;;;;;3.10;0.50;;;;;;;23.79;40.95;101094.02;107518;1253;112155;-62
2023/08/08 10:45:20;;;;;;;6.70;0.50;;;;;;;23.84;41.09;101085.34;107597;1254;110114;-61
2023/08/08 10:47:49;;;;;;;4.90;0.50;;;;;;;23.84;40.71;101081.28;107564;1255;108122;-60
2023/08/08 10:50:23;;;;;;;2.70;0.60;;;;;;;23.74;41.10;101076.25;107612;1253;97825;-63
2023/08/08 10:52:51;;;;;;;5.00;0.80;;;;;;;23.67;41.31;101069.17;107623;1251;97829;-60
2023/08/08 10:55:42;;;;;;;7.70;1.20;;;;;;;23.61;41.25;101067.80;107651;1250;111250;-61
2023/08/08 10:58:19;;;;;;;3.10;0.60;;;;;;;23.57;41.11;101073.84;107559;1254;110047;-63
2023/08/08 11:00:48;;;;;;;9.60;0.90;;;;;;;23.60;41.72;101078.65;107601;1252;107854;-63
2023/08/08 11:03:18;;;;;;;1.70;0.50;;;;;;;23.66;41.06;101082.41;107559;1254;97788;-63
2023/08/08 11:05:48;;;;;;;4.60;0.70;;;;;;;23.83;41.14;101081.63;107633;1254;97720;-61
2023/08/08 11:08:21;;;;;;;1.50;0.60;;;;;;;24.08;40.91;101088.73;107559;1256;111905;-60
2023/08/08 11:10:52;;;;;;;2.60;0.30;;;;;;;24.30;41.10;101088.12;107594;1256;108230;-60
2023/08/08 11:13:21;;;;;;;0.60;0.50;;;;;;;24.47;40.79;101092.55;107599;1256;108324;-60
2023/08/08 11:15:50;;;;;;;3.10;0.60;;;;;;;24.55;40.44;101090.46;107548;1256;97908;-61
2023/08/08 11:18:18;;;;;;;3.10;0.70;;;;;;;24.66;39.61;101090.57;107565;1254;98363;-62
2023/08/08 11:20:46;;;;;;;0.70;0.50;;;;;;;24.73;39.11;101089.02;107581;1254;112010;-62